Time;durP1;ratioP1;P1;durP2;ratioP2;P2;SDS_P1;SDS_P2;PMS_P1;PMS_P2;Temp;Humidity;BMP_temperature;BMP_pressure;BME280_temperature;BME280_humidity;BME280_pressure;Samples;Min_cycle;Max_cycle;Signal;HPM_P1;HPM_P2
2023/12/29 05:01:56;;;;;;;0.28;0.28;;;6.80;99.90;;;;;;5193335;23;20247;-73
2023/12/29 05:04:23;;;;;;;0.20;0.20;;;6.70;99.90;;;;;;4924714;29;20224;-73
2023/12/29 05:06:49;;;;;;;0.20;0.20;;;6.80;99.90;;;;;;4920312;29;20221;-73
2023/12/29 05:09:16;;;;;;;0.70;0.30;;;6.80;99.90;;;;;;4922726;29;20215;-72
2023/12/29 05:11:43;;;;;;;0.20;0.20;;;6.80;99.90;;;;;;4909433;29;20258;-73
2023/12/29 05:14:10;;;;;;;0.57;0.20;;;6.80;99.90;;;;;;4906919;29;20225;-73
2023/12/29 05:16:37;;;;;;;0.20;0.20;;;6.80;99.90;;;;;;4913904;29;20217;-73
2023/12/29 05:19:05;;;;;;;3.38;0.30;;;6.90;99.90;;;;;;4910184;29;20222;-73
2023/12/29 05:21:31;;;;;;;0.40;0.40;;;6.90;99.90;;;;;;4903538;29;20231;-73
2023/12/29 05:23:59;;;;;;;0.30;0.30;;;6.90;99.90;;;;;;4913082;29;20214;-73
2023/12/29 05:26:26;;;;;;;0.35;0.35;;;6.90;99.90;;;;;;4901432;29;20207;-73
2023/12/29 05:28:52;;;;;;;0.68;0.68;;;7.00;99.90;;;;;;4912386;29;20219;-73
2023/12/29 05:31:19;;;;;;;0.35;0.35;;;7.00;99.90;;;;;;4913996;29;20238;-73
2023/12/29 05:33:46;;;;;;;0.47;0.47;;;7.00;99.90;;;;;;4908818;29;20230;-73
2023/12/29 05:36:14;;;;;;;1.30;0.50;;;7.00;99.90;;;;;;4906549;29;20696;-73
2023/12/29 05:38:41;;;;;;;0.20;0.20;;;7.00;99.90;;;;;;4907326;29;20227;-73
2023/12/29 05:41:08;;;;;;;0.40;0.40;;;6.90;99.90;;;;;;4908043;29;20246;-73
2023/12/29 05:43:35;;;;;;;0.50;0.50;;;6.90;99.90;;;;;;4907477;29;20218;-73
2023/12/29 05:46:02;;;;;;;0.43;0.30;;;6.90;99.90;;;;;;4908949;29;20245;-72
2023/12/29 05:48:28;;;;;;;1.38;0.50;;;6.90;99.90;;;;;;4902347;29;20210;-72
2023/12/29 05:50:55;;;;;;;1.27;0.20;;;6.90;99.90;;;;;;4902413;29;20234;-72
2023/12/29 05:53:23;;;;;;;0.28;0.28;;;6.90;99.90;;;;;;4901182;29;20227;-71
2023/12/29 05:55:50;;;;;;;0.30;0.30;;;6.90;99.90;;;;;;4906040;29;20226;-72
2023/12/29 05:58:16;;;;;;;2.53;0.47;;;6.90;99.90;;;;;;4913652;29;20589;-72
2023/12/29 06:00:44;;;;;;;1.35;0.32;;;6.90;99.90;;;;;;4914070;29;20249;-73
2023/12/29 06:03:11;;;;;;;0.40;0.40;;;6.80;99.90;;;;;;4913028;29;20206;-72
2023/12/29 06:05:37;;;;;;;0.30;0.30;;;6.80;99.90;;;;;;4914890;29;20225;-72
2023/12/29 06:08:05;;;;;;;1.73;0.35;;;6.80;99.90;;;;;;4914959;29;20215;-72
2023/12/29 06:10:33;;;;;;;0.68;0.68;;;6.80;99.90;;;;;;4901360;29;20749;-72
2023/12/29 06:13:01;;;;;;;4.55;1.00;;;6.80;99.90;;;;;;4909612;29;20258;-72
2023/12/29 06:15:28;;;;;;;0.50;0.30;;;6.80;99.90;;;;;;4908326;29;20209;-71
2023/12/29 06:17:55;;;;;;;1.40;0.55;;;6.80;99.90;;;;;;4913747;29;20210;-72
2023/12/29 06:20:21;;;;;;;0.30;0.30;;;6.80;99.90;;;;;;4910725;29;20211;-72
2023/12/29 06:22:48;;;;;;;0.77;0.55;;;6.80;99.90;;;;;;4912040;29;20674;-72
2023/12/29 06:25:15;;;;;;;0.60;0.60;;;6.80;99.90;;;;;;4911411;29;20277;-72
2023/12/29 06:27:43;;;;;;;2.65;0.50;;;6.80;99.90;;;;;;4910186;29;20214;-72
2023/12/29 06:30:11;;;;;;;0.52;0.50;;;6.80;99.90;;;;;;4906765;29;20593;-72
2023/12/29 06:32:38;;;;;;;0.50;0.50;;;6.90;99.90;;;;;;4901722;29;20263;-72
2023/12/29 06:35:05;;;;;;;1.20;0.55;;;6.90;99.90;;;;;;4904216;29;20204;-72
2023/12/29 06:37:32;;;;;;;0.85;0.70;;;6.90;99.90;;;;;;4910554;29;20206;-72
2023/12/29 06:39:59;;;;;;;0.90;0.70;;;6.80;99.90;;;;;;4910651;29;20243;-71
2023/12/29 06:42:27;;;;;;;0.65;0.65;;;6.90;99.90;;;;;;4904642;29;20646;-71
2023/12/29 06:44:55;;;;;;;2.05;1.38;;;6.90;99.90;;;;;;4905306;29;20213;-72
2023/12/29 06:47:21;;;;;;;6.93;1.10;;;7.10;99.90;;;;;;4900367;29;20211;-72
2023/12/29 06:49:49;;;;;;;0.90;0.73;;;7.30;99.90;;;;;;4905907;29;20230;-72
2023/12/29 06:52:16;;;;;;;0.95;0.95;;;7.30;99.90;;;;;;4910228;29;20230;-71
2023/12/29 06:54:43;;;;;;;1.83;1.33;;;7.40;99.90;;;;;;4913881;29;20207;-71
2023/12/29 06:57:10;;;;;;;2.08;1.05;;;7.50;99.90;;;;;;4912058;29;20214;-72
2023/12/29 06:59:37;;;;;;;1.33;1.33;;;7.60;99.90;;;;;;4907378;29;20213;-71
2023/12/29 07:02:05;;;;;;;1.25;1.25;;;7.80;99.90;;;;;;4909372;29;20623;-72
2023/12/29 07:04:33;;;;;;;1.40;1.30;;;7.90;99.90;;;;;;4913396;29;20229;-72
2023/12/29 07:07:01;;;;;;;4.78;1.05;;;8.00;99.90;;;;;;4912053;29;20222;-73
2023/12/29 07:09:28;;;;;;;1.75;1.73;;;8.10;99.90;;;;;;4908118;29;20210;-72
2023/12/29 07:11:55;;;;;;;3.90;1.65;;;8.10;99.90;;;;;;4905761;29;20594;-71
2023/12/29 07:14:22;;;;;;;3.75;1.98;;;8.20;99.90;;;;;;4910350;29;20237;-72
2023/12/29 07:16:48;;;;;;;1.15;1.15;;;8.30;99.90;;;;;;4904926;29;20562;-72
2023/12/29 07:19:16;;;;;;;3.42;1.75;;;8.30;99.90;;;;;;4908433;29;20219;-71
2023/12/29 07:21:43;;;;;;;1.50;1.15;;;8.40;99.90;;;;;;4903776;29;20226;-72
2023/12/29 07:24:10;;;;;;;5.45;1.30;;;8.40;99.90;;;;;;4903057;29;20203;-71
2023/12/29 07:26:36;;;;;;;1.80;1.80;;;8.50;99.90;;;;;;4896223;29;20255;-73
2023/12/29 07:29:03;;;;;;;2.80;1.52;;;8.50;99.90;;;;;;4909732;29;20214;-72
2023/12/29 07:31:30;;;;;;;2.83;1.70;;;8.50;99.90;;;;;;4904571;29;20257;-72
2023/12/29 07:33:56;;;;;;;3.80;1.70;;;8.50;99.90;;;;;;4912825;29;20233;-72
2023/12/29 07:36:24;;;;;;;1.15;1.10;;;8.50;99.90;;;;;;4915105;29;20221;-72
2023/12/29 07:38:51;;;;;;;1.80;1.70;;;8.50;99.90;;;;;;4916666;29;20203;-72
2023/12/29 07:41:18;;;;;;;1.30;1.30;;;8.50;99.90;;;;;;4912915;29;20234;-71
2023/12/29 07:43:45;;;;;;;1.33;1.23;;;8.50;99.90;;;;;;4900874;29;20236;-72
2023/12/29 07:46:12;;;;;;;5.18;1.77;;;8.50;99.90;;;;;;4905088;29;20218;-71
2023/12/29 07:48:39;;;;;;;1.70;1.60;;;8.50;99.90;;;;;;4908249;29;20703;-71
2023/12/29 07:51:07;;;;;;;3.45;1.60;;;8.50;99.90;;;;;;4913667;29;20789;-70
2023/12/29 07:53:35;;;;;;;1.70;1.40;;;8.50;99.90;;;;;;4907154;29;20690;-70
2023/12/29 07:56:02;;;;;;;3.08;2.10;;;8.60;99.90;;;;;;4909106;29;20214;-71
2023/12/29 07:58:29;;;;;;;1.50;1.50;;;8.60;99.90;;;;;;4916868;29;20298;-72
2023/12/29 08:00:55;;;;;;;2.60;1.25;;;8.60;99.90;;;;;;4907709;29;20235;-73
2023/12/29 08:03:22;;;;;;;2.85;1.23;;;8.70;99.90;;;;;;4908607;29;20222;-72
2023/12/29 08:05:49;;;;;;;1.23;1.23;;;8.80;99.90;;;;;;4912845;29;20301;-72
2023/12/29 08:08:15;;;;;;;1.70;1.35;;;8.80;99.90;;;;;;4916253;29;20660;-72
2023/12/29 08:10:44;;;;;;;1.67;1.30;;;8.80;99.90;;;;;;4917117;29;20319;-72
2023/12/29 08:13:10;;;;;;;2.92;2.70;;;8.70;99.90;;;;;;4915029;29;20843;-72
2023/12/29 08:15:37;;;;;;;1.40;1.40;;;8.70;99.90;;;;;;4914006;29;20211;-72
2023/12/29 08:18:04;;;;;;;2.67;2.58;;;8.70;99.90;;;;;;4905458;29;20627;-72
2023/12/29 08:20:31;;;;;;;3.42;1.50;;;8.80;99.90;;;;;;4905335;29;20227;-72
2023/12/29 08:22:58;;;;;;;1.65;1.55;;;8.80;99.90;;;;;;4903817;29;20227;-72
2023/12/29 08:25:24;;;;;;;7.30;1.65;;;8.80;99.90;;;;;;4904712;29;20211;-72
2023/12/29 08:27:53;;;;;;;4.03;1.33;;;8.80;99.90;;;;;;4907036;29;20214;-72
2023/12/29 08:30:19;;;;;;;2.55;2.05;;;8.80;99.90;;;;;;4909539;29;20239;-72
2023/12/29 08:32:46;;;;;;;3.20;1.50;;;8.80;99.90;;;;;;4910048;29;20221;-72
2023/12/29 08:35:13;;;;;;;1.10;1.10;;;8.80;99.90;;;;;;4908683;29;20207;-72
2023/12/29 08:37:40;;;;;;;2.13;1.83;;;8.80;99.90;;;;;;4901664;29;20208;-72
2023/12/29 08:40:08;;;;;;;8.55;2.13;;;8.80;99.90;;;;;;4897580;29;20215;-72
2023/12/29 08:42:34;;;;;;;1.20;1.20;;;8.80;99.90;;;;;;4909870;29;20226;-72
2023/12/29 08:45:04;;;;;;;1.30;1.30;;;8.80;99.90;;;;;;4903495;29;20317;-72
2023/12/29 08:47:31;;;;;;;4.32;1.58;;;8.80;99.90;;;;;;4903112;29;20328;-72
2023/12/29 08:49:58;;;;;;;15.05;4.38;;;8.80;99.90;;;;;;4909014;29;20210;-71
2023/12/29 08:52:24;;;;;;;7.22;3.25;;;8.80;99.90;;;;;;4910913;29;20231;-72
2023/12/29 08:54:51;;;;;;;2.95;1.88;;;8.80;99.90;;;;;;4905928;29;20878;-72
2023/12/29 08:57:18;;;;;;;2.58;1.75;;;8.80;99.90;;;;;;4901381;29;20313;-72
2023/12/29 08:59:45;;;;;;;2.78;2.45;;;8.80;99.90;;;;;;4912727;29;20216;-72
2023/12/29 09:02:13;;;;;;;14.75;7.65;;;8.80;99.90;;;;;;4915353;29;20238;-72
2023/12/29 09:04:39;;;;;;;3.58;3.35;;;8.90;99.90;;;;;;4909187;29;20869;-72
2023/12/29 09:07:06;;;;;;;3.47;1.50;;;8.90;99.90;;;;;;4903551;29;20213;-72
2023/12/29 09:09:33;;;;;;;3.78;1.83;;;8.90;99.90;;;;;;4908434;29;20663;-72
2023/12/29 09:12:00;;;;;;;2.40;1.80;;;8.90;99.90;;;;;;4906991;29;20231;-71
2023/12/29 09:14:26;;;;;;;1.70;1.60;;;9.00;99.90;;;;;;4903889;29;20539;-71
2023/12/29 09:16:53;;;;;;;3.30;1.33;;;9.00;99.90;;;;;;4900673;29;20235;-70
2023/12/29 09:19:21;;;;;;;2.25;1.40;;;9.00;99.90;;;;;;4909051;29;20203;-70
2023/12/29 09:21:48;;;;;;;9.32;1.65;;;9.00;99.90;;;;;;4915054;29;20242;-71
2023/12/29 09:24:15;;;;;;;3.45;2.40;;;9.00;99.90;;;;;;4912311;29;20207;-71
2023/12/29 09:26:41;;;;;;;1.02;1.02;;;9.00;99.90;;;;;;4901718;29;20234;-71
2023/12/29 09:29:08;;;;;;;5.95;1.45;;;9.10;99.90;;;;;;4908118;29;20220;-71
2023/12/29 09:31:36;;;;;;;2.53;1.55;;;9.20;99.90;;;;;;4904063;29;20227;-71
2023/12/29 09:34:02;;;;;;;6.07;1.60;;;9.20;99.90;;;;;;4900907;29;20330;-73
2023/12/29 09:36:30;;;;;;;2.42;2.15;;;9.30;99.90;;;;;;4905734;29;20251;-71
2023/12/29 09:38:57;;;;;;;4.63;0.98;;;9.30;99.90;;;;;;4904431;29;20223;-72
2023/12/29 09:41:26;;;;;;;1.25;1.23;;;9.30;99.90;;;;;;4906285;29;20578;-70
2023/12/29 09:43:53;;;;;;;3.80;1.65;;;9.30;99.90;;;;;;4899991;29;20224;-71
2023/12/29 09:46:23;;;;;;;2.10;1.90;;;9.30;99.90;;;;;;4902950;29;20219;-71
2023/12/29 09:48:53;;;;;;;4.63;2.65;;;9.30;99.90;;;;;;4900259;29;20209;-71
2023/12/29 09:51:22;;;;;;;6.28;1.67;;;9.30;99.90;;;;;;4899307;29;20667;-71
2023/12/29 09:53:51;;;;;;;2.10;1.20;;;9.30;99.90;;;;;;4906236;29;20787;-71
2023/12/29 09:56:19;;;;;;;1.85;1.58;;;9.30;99.90;;;;;;4907170;29;20212;-72
2023/12/29 09:58:48;;;;;;;0.55;0.55;;;9.20;99.90;;;;;;4905988;29;20218;-70
2023/12/29 10:01:18;;;;;;;3.50;0.70;;;9.00;99.90;;;;;;4908861;29;20231;-72
2023/12/29 10:03:44;;;;;;;0.35;0.35;;;8.90;99.90;;;;;;4902514;29;20210;-72
2023/12/29 10:06:15;;;;;;;0.85;0.40;;;8.70;99.90;;;;;;4901518;29;20687;-72
2023/12/29 10:08:46;;;;;;;1.20;0.63;;;8.50;99.90;;;;;;4903761;29;20219;-71
2023/12/29 10:11:16;;;;;;;2.10;2.10;;;8.40;99.90;;;;;;4905246;29;20270;-72
2023/12/29 10:13:44;;;;;;;1.85;0.70;;;8.30;99.90;;;;;;4904879;29;20245;-72
2023/12/29 10:16:24;;;;;;;0.80;0.80;;;8.20;99.90;;;;;;4901619;29;20206;-72
2023/12/29 10:18:58;;;;;;;4.05;1.02;;;8.20;99.90;;;;;;4901003;29;20642;-72
2023/12/29 10:21:30;;;;;;;0.30;0.30;;;8.10;99.90;;;;;;4900232;29;20227;-72
2023/12/29 10:24:04;;;;;;;0.30;0.30;;;8.20;99.90;;;;;;4905481;29;20210;-71
2023/12/29 10:26:32;;;;;;;0.57;0.57;;;8.20;99.90;;;;;;4898983;29;20203;-71
2023/12/29 10:29:00;;;;;;;1.85;0.68;;;8.30;99.90;;;;;;4903899;29;20214;-71
2023/12/29 10:31:26;;;;;;;1.67;0.75;;;8.30;99.90;;;;;;4902280;29;20239;-71
2023/12/29 10:33:53;;;;;;;0.40;0.40;;;8.30;99.90;;;;;;4905110;29;20611;-71
2023/12/29 10:36:20;;;;;;;1.52;0.47;;;8.20;99.90;;;;;;4906258;29;20223;-71
2023/12/29 10:38:48;;;;;;;1.20;0.57;;;8.20;99.90;;;;;;4902047;29;20651;-71
2023/12/29 10:41:16;;;;;;;1.15;0.50;;;8.20;99.90;;;;;;4904437;29;20226;-72
2023/12/29 10:43:47;;;;;;;0.93;0.77;;;8.20;99.90;;;;;;4904507;29;20587;-72
2023/12/29 10:46:14;;;;;;;0.32;0.32;;;8.20;99.90;;;;;;4906495;29;20214;-72
2023/12/29 10:48:41;;;;;;;0.35;0.35;;;8.20;99.90;;;;;;4900475;29;20310;-72
2023/12/29 10:51:09;;;;;;;0.35;0.35;;;8.30;99.90;;;;;;4909134;29;20250;-72
2023/12/29 10:53:37;;;;;;;1.05;0.73;;;8.30;99.90;;;;;;4910407;29;20647;-72
2023/12/29 10:56:04;;;;;;;1.30;0.57;;;8.30;99.90;;;;;;4898135;29;20596;-72
2023/12/29 10:58:32;;;;;;;0.60;0.60;;;8.30;99.90;;;;;;4905447;29;20218;-72
2023/12/29 11:01:00;;;;;;;5.97;0.63;;;8.40;99.90;;;;;;4902706;29;20251;-72
2023/12/29 11:03:27;;;;;;;0.55;0.40;;;8.40;99.90;;;;;;4906979;29;20274;-72
2023/12/29 11:06:01;;;;;;;1.00;0.65;;;8.40;99.90;;;;;;4908140;29;20215;-72
2023/12/29 11:08:27;;;;;;;0.70;0.70;;;8.40;99.90;;;;;;4909393;29;20626;-73
2023/12/29 11:10:55;;;;;;;0.40;0.40;;;8.40;99.90;;;;;;4910268;29;20230;-72
2023/12/29 11:13:23;;;;;;;1.95;0.50;;;8.40;99.90;;;;;;4907880;29;20206;-71
2023/12/29 11:15:50;;;;;;;0.90;0.85;;;8.40;99.90;;;;;;4907801;29;20239;-72
2023/12/29 11:18:18;;;;;;;7.07;0.82;;;8.40;99.90;;;;;;4908355;29;20211;-72
2023/12/29 11:20:46;;;;;;;2.10;1.00;;;8.40;99.90;;;;;;4904932;29;20247;-72
2023/12/29 11:23:14;;;;;;;0.98;0.98;;;8.50;99.90;;;;;;4913776;29;20261;-71
2023/12/29 11:25:41;;;;;;;1.38;0.70;;;8.50;99.90;;;;;;4908845;29;20211;-71
2023/12/29 11:28:11;;;;;;;5.57;1.25;;;8.50;99.90;;;;;;4908653;29;20218;-71
2023/12/29 11:30:39;;;;;;;4.95;4.10;;;8.50;99.90;;;;;;4907423;29;20231;-71
2023/12/29 11:33:11;;;;;;;0.80;0.80;;;8.60;99.90;;;;;;4907214;29;20687;-71
2023/12/29 11:35:46;;;;;;;6.07;2.10;;;8.60;99.90;;;;;;4908019;29;20234;-70
2023/12/29 11:38:31;;;;;;;2.50;1.65;;;8.60;99.90;;;;;;4907935;29;20709;-72
2023/12/29 11:41:06;;;;;;;7.93;1.23;;;8.60;99.90;;;;;;4908737;29;20245;-71
2023/12/29 11:43:34;;;;;;;3.08;1.20;;;8.70;99.90;;;;;;4903545;29;20640;-72
2023/12/29 11:46:01;;;;;;;2.45;1.13;;;8.70;99.90;;;;;;4902868;29;20292;-71
2023/12/29 11:48:56;;;;;;;1.30;0.70;;;8.70;99.90;;;;;;4909690;29;20211;-70
2023/12/29 11:51:32;;;;;;;1.73;1.63;;;8.70;99.90;;;;;;4904224;29;20306;-72
2023/12/29 11:53:59;;;;;;;2.03;1.35;;;8.70;99.90;;;;;;4907075;29;20210;-71
2023/12/29 11:56:32;;;;;;;0.65;0.60;;;8.70;99.90;;;;;;4902421;29;20207;-71
2023/12/29 11:59:13;;;;;;;1.98;0.68;;;8.60;99.90;;;;;;4906304;29;20291;-72
2023/12/29 12:01:40;;;;;;;0.98;0.98;;;8.60;99.90;;;;;;4912294;29;20238;-70
2023/12/29 12:04:35;;;;;;;4.35;0.80;;;8.50;99.90;;;;;;4911735;29;20619;-71
2023/12/29 12:07:04;;;;;;;1.95;0.98;;;8.50;99.90;;;;;;4904433;29;20223;-69
2023/12/29 12:09:31;;;;;;;1.05;1.05;;;8.40;99.90;;;;;;4909268;29;20215;-69
2023/12/29 12:11:57;;;;;;;1.95;0.95;;;8.40;99.90;;;;;;4907148;29;20565;-70
2023/12/29 12:14:44;;;;;;;2.30;1.65;;;8.40;99.90;;;;;;4902797;29;20227;-70
2023/12/29 12:17:12;;;;;;;1.88;1.20;;;8.40;99.90;;;;;;4907409;29;20217;-69
2023/12/29 12:19:38;;;;;;;1.05;0.68;;;8.40;99.90;;;;;;4912903;29;20634;-68
2023/12/29 12:22:10;;;;;;;0.45;0.45;;;8.40;99.90;;;;;;4910905;29;20757;-72
2023/12/29 12:24:38;;;;;;;1.95;1.08;;;8.40;99.90;;;;;;4911459;29;20207;-70
2023/12/29 12:27:10;;;;;;;13.77;10.25;;;8.40;99.90;;;;;;4907514;29;20219;-71
2023/12/29 12:29:37;;;;;;;4.30;2.38;;;8.40;99.90;;;;;;4911492;29;20203;-71
2023/12/29 12:32:04;;;;;;;1.95;1.85;;;8.40;99.90;;;;;;4905369;29;20238;-71
2023/12/29 12:34:38;;;;;;;1.17;1.17;;;8.40;99.90;;;;;;4912342;29;20241;-70
2023/12/29 12:37:04;;;;;;;1.65;1.65;;;8.40;99.90;;;;;;4903987;29;20242;-70
2023/12/29 12:39:41;;;;;;;2.85;1.95;;;8.40;99.90;;;;;;4913334;29;20683;-69
2023/12/29 12:42:07;;;;;;;1.30;1.30;;;8.40;99.90;;;;;;4913832;29;20230;-70
2023/12/29 12:44:34;;;;;;;3.08;1.45;;;8.40;99.90;;;;;;4909258;29;20215;-70
2023/12/29 12:47:07;;;;;;;1.13;1.13;;;8.40;99.90;;;;;;4906027;29;20216;-72
2023/12/29 12:49:34;;;;;;;6.03;1.75;;;8.40;99.90;;;;;;4906354;29;20211;-71
2023/12/29 12:52:02;;;;;;;1.30;1.30;;;8.40;99.90;;;;;;4905111;29;20231;-72
2023/12/29 12:54:29;;;;;;;1.00;1.00;;;8.40;99.90;;;;;;4907374;29;20309;-72
2023/12/29 12:56:57;;;;;;;1.20;1.20;;;8.40;99.90;;;;;;4906709;29;20215;-71
2023/12/29 12:59:24;;;;;;;1.50;1.50;;;8.40;99.90;;;;;;4906966;29;20207;-72
2023/12/29 13:01:51;;;;;;;1.00;0.88;;;8.50;99.90;;;;;;4912306;29;20234;-71
2023/12/29 13:04:18;;;;;;;1.17;1.05;;;8.50;99.90;;;;;;4909366;29;20824;-71
2023/12/29 13:06:45;;;;;;;0.98;0.98;;;8.50;99.90;;;;;;4913615;29;20289;-70
2023/12/29 13:09:13;;;;;;;2.15;0.52;;;8.50;99.90;;;;;;4909142;29;20211;-70
2023/12/29 13:11:40;;;;;;;0.40;0.40;;;8.50;99.90;;;;;;4908360;29;20230;-69
2023/12/29 13:14:08;;;;;;;0.77;0.77;;;8.50;99.90;;;;;;4905034;29;20212;-72
2023/12/29 13:16:36;;;;;;;0.50;0.50;;;8.50;99.90;;;;;;4904791;29;20228;-72
2023/12/29 13:19:19;;;;;;;0.70;0.70;;;8.50;99.90;;;;;;4903540;29;20210;-71
2023/12/29 13:21:49;;;;;;;0.82;0.82;;;8.40;99.90;;;;;;4906710;29;20231;-72
2023/12/29 13:24:16;;;;;;;0.40;0.40;;;8.40;99.90;;;;;;4900128;29;20219;-70
2023/12/29 13:26:46;;;;;;;1.17;0.98;;;8.40;99.90;;;;;;4906171;29;20215;-73
2023/12/29 13:29:15;;;;;;;3.90;1.15;;;8.40;99.90;;;;;;4907033;29;20242;-72
2023/12/29 13:31:42;;;;;;;0.60;0.60;;;8.40;99.90;;;;;;4904638;29;20610;-72
2023/12/29 13:34:15;;;;;;;0.47;0.47;;;8.40;99.90;;;;;;4905633;29;20216;-72
2023/12/29 13:36:48;;;;;;;3.63;3.40;;;8.40;99.90;;;;;;4905524;29;20226;-72
2023/12/29 13:39:22;;;;;;;1.85;0.60;;;8.30;99.90;;;;;;4903208;29;20299;-72
2023/12/29 13:41:50;;;;;;;0.77;0.77;;;8.30;99.90;;;;;;4913189;29;20707;-72
2023/12/29 13:44:21;;;;;;;1.40;1.38;;;8.30;99.90;;;;;;4905767;29;20225;-69
2023/12/29 13:46:49;;;;;;;0.63;0.63;;;8.30;99.90;;;;;;4909607;29;20210;-70
2023/12/29 13:49:16;;;;;;;0.70;0.70;;;8.20;99.90;;;;;;4911285;29;20213;-69
2023/12/29 13:51:43;;;;;;;1.65;1.15;;;8.20;99.90;;;;;;4911833;29;20233;-70
2023/12/29 13:54:10;;;;;;;0.70;0.70;;;8.20;99.90;;;;;;4906744;29;20675;-69
2023/12/29 13:56:37;;;;;;;4.15;1.65;;;8.20;99.90;;;;;;4901951;29;20235;-72
2023/12/29 13:59:07;;;;;;;2.15;0.50;;;8.20;99.90;;;;;;4902629;29;20236;-70
2023/12/29 14:01:39;;;;;;;1.45;0.50;;;8.30;99.90;;;;;;4905958;29;20246;-71
2023/12/29 14:04:09;;;;;;;0.43;0.43;;;8.30;99.90;;;;;;4909440;29;20238;-70
2023/12/29 14:06:41;;;;;;;3.30;0.80;;;8.30;99.90;;;;;;4903880;29;20230;-70
2023/12/29 14:09:16;;;;;;;0.75;0.65;;;8.30;99.90;;;;;;4901434;29;20211;-71
2023/12/29 14:11:45;;;;;;;6.40;1.13;;;8.30;99.90;;;;;;4907644;29;20269;-71
2023/12/29 14:14:12;;;;;;;2.63;0.95;;;8.30;99.90;;;;;;4907067;29;20678;-70
2023/12/29 14:16:41;;;;;;;2.60;1.95;;;8.30;99.90;;;;;;4906995;29;20223;-70
2023/12/29 14:19:08;;;;;;;1.00;1.00;;;8.30;99.90;;;;;;4895392;29;20238;-71
2023/12/29 14:21:35;;;;;;;0.68;0.68;;;8.30;99.90;;;;;;4907457;29;20238;-70
2023/12/29 14:24:09;;;;;;;1.70;1.17;;;8.30;99.90;;;;;;4903475;29;20215;-72
2023/12/29 14:26:37;;;;;;;0.63;0.63;;;8.30;99.90;;;;;;4909681;29;20638;-71
2023/12/29 14:29:07;;;;;;;2.17;2.08;;;8.30;99.90;;;;;;4911866;29;20555;-69
2023/12/29 14:31:37;;;;;;;5.72;1.27;;;8.30;99.90;;;;;;4905545;29;20273;-70
2023/12/29 14:34:05;;;;;;;1.15;0.82;;;8.20;99.90;;;;;;4903307;29;20257;-70
2023/12/29 14:36:32;;;;;;;0.93;0.93;;;8.20;99.90;;;;;;4911867;29;20218;-71
2023/12/29 14:38:59;;;;;;;11.02;1.63;;;8.20;99.90;;;;;;4904837;29;20602;-70
2023/12/29 14:41:26;;;;;;;1.63;0.98;;;8.20;99.90;;;;;;4908583;29;20234;-70
2023/12/29 14:43:53;;;;;;;0.65;0.65;;;8.20;99.90;;;;;;4910703;29;20971;-72
2023/12/29 14:46:20;;;;;;;6.97;2.05;;;8.20;99.90;;;;;;4904029;29;20654;-70
2023/12/29 14:48:47;;;;;;;5.28;2.65;;;8.10;99.90;;;;;;4907410;29;20670;-70
2023/12/29 14:51:15;;;;;;;1.17;1.00;;;8.10;99.90;;;;;;4899106;29;20299;-70
2023/12/29 14:53:44;;;;;;;1.40;1.30;;;8.10;99.90;;;;;;4901947;29;20234;-70
2023/12/29 14:56:11;;;;;;;5.00;2.78;;;8.00;99.90;;;;;;4904861;29;20231;-70
2023/12/29 14:58:38;;;;;;;8.23;4.63;;;8.00;99.90;;;;;;4897963;29;20254;-70
2023/12/29 15:01:05;;;;;;;1.98;1.73;;;8.00;99.90;;;;;;4909297;29;20265;-71
2023/12/29 15:03:32;;;;;;;3.13;2.92;;;8.00;99.90;;;;;;4913250;29;20230;-70
2023/12/29 15:05:59;;;;;;;3.20;2.97;;;8.00;99.90;;;;;;4906262;29;20214;-71
2023/12/29 15:08:31;;;;;;;9.57;3.58;;;8.00;99.90;;;;;;4901485;29;20211;-70
2023/12/29 15:10:58;;;;;;;3.90;2.05;;;8.00;99.90;;;;;;4912854;29;20250;-70
2023/12/29 15:13:27;;;;;;;1.42;1.27;;;7.90;99.90;;;;;;4899232;29;20298;-71
2023/12/29 15:15:53;;;;;;;2.50;0.85;;;7.80;99.90;;;;;;4902542;29;20294;-71
2023/12/29 15:18:20;;;;;;;2.10;2.10;;;7.80;99.90;;;;;;4903007;29;20572;-71
2023/12/29 15:20:47;;;;;;;1.08;1.08;;;7.80;99.90;;;;;;4912703;29;20237;-71
2023/12/29 15:23:13;;;;;;;1.25;1.25;;;7.70;99.90;;;;;;4907546;29;20206;-71
2023/12/29 15:25:43;;;;;;;2.22;2.13;;;7.70;99.90;;;;;;4903609;29;20203;-70
2023/12/29 15:28:09;;;;;;;1.00;0.85;;;7.70;99.90;;;;;;4903733;29;20354;-70
2023/12/29 15:30:36;;;;;;;1.73;1.70;;;7.70;99.90;;;;;;4904145;29;20237;-71
2023/12/29 15:33:03;;;;;;;1.00;1.00;;;7.70;99.90;;;;;;4902775;29;20222;-71
2023/12/29 15:35:30;;;;;;;1.00;1.00;;;7.70;99.90;;;;;;4905324;29;20239;-71
2023/12/29 15:37:56;;;;;;;6.07;0.82;;;7.70;99.90;;;;;;4902436;29;20593;-71
2023/12/29 15:40:23;;;;;;;1.17;1.17;;;7.70;99.90;;;;;;4907303;29;20206;-71
2023/12/29 15:42:51;;;;;;;0.98;0.98;;;7.70;99.90;;;;;;4910728;29;20217;-70
2023/12/29 15:45:18;;;;;;;0.80;0.80;;;7.70;99.90;;;;;;4906614;29;20222;-70
2023/12/29 15:47:45;;;;;;;1.00;1.00;;;7.70;99.90;;;;;;4904482;29;20247;-71
2023/12/29 15:50:12;;;;;;;0.70;0.70;;;7.70;99.90;;;;;;4908109;29;20221;-70
2023/12/29 15:52:39;;;;;;;1.13;1.13;;;7.70;99.90;;;;;;4906104;29;20237;-70
2023/12/29 15:55:07;;;;;;;3.30;0.95;;;7.80;99.90;;;;;;4907513;29;20241;-71
2023/12/29 15:57:33;;;;;;;2.25;1.58;;;7.80;99.90;;;;;;4904907;29;20579;-72
2023/12/29 16:00:03;;;;;;;6.00;2.75;;;7.80;99.90;;;;;;4904347;29;20214;-73
2023/12/29 16:02:30;;;;;;;0.80;0.80;;;7.80;99.90;;;;;;4909549;29;20584;-72
2023/12/29 16:04:56;;;;;;;4.10;3.75;;;7.80;99.90;;;;;;4903508;29;20211;-71
2023/12/29 16:07:23;;;;;;;5.28;2.15;;;7.80;99.90;;;;;;4904936;29;21047;-72
2023/12/29 16:09:50;;;;;;;31.77;17.35;;;7.70;99.90;;;;;;4912889;29;20798;-71
2023/12/29 16:12:17;;;;;;;6.90;3.10;;;7.70;99.90;;;;;;4906553;29;20230;-71
2023/12/29 16:14:43;;;;;;;2.88;2.70;;;7.70;99.90;;;;;;4906887;29;20207;-72
2023/12/29 16:17:11;;;;;;;5.72;3.78;;;7.70;99.90;;;;;;4911182;29;20344;-71
2023/12/29 16:19:39;;;;;;;4.05;2.40;;;7.70;99.90;;;;;;4912439;29;20238;-72
2023/12/29 16:22:05;;;;;;;3.90;2.88;;;7.80;99.90;;;;;;4911624;29;20616;-71
2023/12/29 16:24:32;;;;;;;1.95;1.80;;;7.80;99.90;;;;;;4908833;29;20298;-72
2023/12/29 16:26:59;;;;;;;1.80;1.15;;;7.80;99.90;;;;;;4907482;29;20600;-72
2023/12/29 16:29:25;;;;;;;2.47;2.35;;;7.80;99.90;;;;;;4915416;29;20985;-71
2023/12/29 16:31:52;;;;;;;10.48;4.18;;;7.90;99.90;;;;;;4912157;29;20223;-73
2023/12/29 16:34:20;;;;;;;4.38;3.97;;;7.90;99.90;;;;;;4906915;29;20210;-71
2023/12/29 16:36:57;;;;;;;12.30;4.32;;;7.90;99.90;;;;;;4912141;29;20234;-71
2023/12/29 16:39:23;;;;;;;3.53;3.13;;;7.90;99.90;;;;;;4906841;29;20217;-71
2023/12/29 16:41:50;;;;;;;2.83;2.67;;;7.90;99.90;;;;;;4904490;29;20230;-72
2023/12/29 16:44:17;;;;;;;2.25;2.15;;;7.90;99.90;;;;;;4904888;29;20215;-72
2023/12/29 16:46:44;;;;;;;2.60;2.50;;;7.90;99.90;;;;;;4909476;29;20300;-72
2023/12/29 16:49:11;;;;;;;2.67;2.28;;;8.00;99.90;;;;;;4903115;29;20647;-72
2023/12/29 16:51:39;;;;;;;3.55;2.78;;;8.00;99.90;;;;;;4908617;29;20235;-73
2023/12/29 16:54:06;;;;;;;2.78;2.53;;;8.00;99.90;;;;;;4904481;29;20211;-71
2023/12/29 16:56:33;;;;;;;2.50;2.40;;;8.00;99.90;;;;;;4902483;29;20317;-74
2023/12/29 16:59:02;;;;;;;2.90;2.67;;;8.10;99.90;;;;;;4905486;29;20211;-72
2023/12/29 17:01:29;;;;;;;2.60;2.40;;;8.10;99.90;;;;;;4906509;29;20325;-73
2023/12/29 17:03:56;;;;;;;3.17;1.95;;;8.10;99.90;;;;;;4903846;29;20229;-71
2023/12/29 17:06:22;;;;;;;2.53;2.00;;;8.10;99.90;;;;;;4907060;29;20266;-73
2023/12/29 17:08:50;;;;;;;1.50;1.50;;;8.00;99.90;;;;;;4905815;29;20214;-71
2023/12/29 17:11:17;;;;;;;2.05;1.67;;;8.00;99.90;;;;;;4902046;29;20345;-71
2023/12/29 17:13:44;;;;;;;5.35;2.45;;;8.10;99.90;;;;;;4902154;29;20209;-71
2023/12/29 17:16:11;;;;;;;1.95;1.85;;;8.10;99.90;;;;;;4909681;29;20227;-71
2023/12/29 17:18:38;;;;;;;1.60;1.50;;;8.10;99.90;;;;;;4901825;29;20213;-73
2023/12/29 17:21:06;;;;;;;2.28;2.17;;;8.00;99.90;;;;;;4907296;29;20291;-72
2023/12/29 17:23:32;;;;;;;1.55;1.55;;;8.00;99.90;;;;;;4906069;29;20279;-72
2023/12/29 17:26:00;;;;;;;1.42;1.33;;;8.00;99.90;;;;;;4911421;29;20654;-71
2023/12/29 17:28:28;;;;;;;1.90;1.80;;;8.10;99.90;;;;;;4909680;29;20214;-73
2023/12/29 17:30:55;;;;;;;1.65;1.65;;;8.10;99.90;;;;;;4897808;29;20235;-73
2023/12/29 17:33:21;;;;;;;1.67;1.45;;;8.00;99.90;;;;;;4903396;29;20325;-72
2023/12/29 17:35:48;;;;;;;1.73;1.67;;;8.00;99.90;;;;;;4906417;29;20203;-71
2023/12/29 17:38:15;;;;;;;1.52;1.52;;;8.00;99.90;;;;;;4907215;29;20214;-71
2023/12/29 17:40:41;;;;;;;1.65;1.55;;;8.00;99.90;;;;;;4907562;29;20256;-72
2023/12/29 17:43:09;;;;;;;2.08;1.75;;;8.00;99.90;;;;;;4907827;29;20733;-71
2023/12/29 17:45:36;;;;;;;4.38;2.08;;;7.90;99.90;;;;;;4902790;29;20215;-72
2023/12/29 17:48:03;;;;;;;2.70;2.60;;;8.00;99.90;;;;;;4903999;29;20211;-72
2023/12/29 17:50:30;;;;;;;11.63;7.28;;;7.90;99.90;;;;;;4907869;29;20211;-72
2023/12/29 17:52:57;;;;;;;7.75;4.25;;;7.90;99.90;;;;;;4907022;29;20211;-72
2023/12/29 17:55:24;;;;;;;2.80;2.33;;;7.90;99.90;;;;;;4904986;29;20218;-75
2023/12/29 17:57:50;;;;;;;5.97;2.88;;;7.90;99.90;;;;;;4911353;29;20234;-71
2023/12/29 18:00:19;;;;;;;2.38;2.38;;;7.90;99.90;;;;;;4908458;29;20586;-71
2023/12/29 18:02:45;;;;;;;3.95;1.50;;;7.90;99.90;;;;;;4904557;29;20207;-74